Time;durP1;ratioP1;P1;durP2;ratioP2;P2;SDS_P1;SDS_P2;PMS_P1;PMS_P2;Temp;Humidity;BMP_temperature;BMP_pressure;BME280_temperature;BME280_humidity;BME280_pressure;Samples;Min_cycle;Max_cycle;Signal;HPM_P1;HPM_P2
2022/12/09 00:29:31;;;;;;;22.27;10.80;;;-1.40;99.90;;;;;;6223144;22;20032;-96
2022/12/09 00:32:30;;;;;;;20.70;11.77;;;-1.40;99.90;;;;;;6171366;23;20024;-96
2022/12/09 00:35:23;;;;;;;21.10;10.55;;;-0.30;99.90;;;;;;6193752;23;20063;-96
2022/12/09 00:38:40;;;;;;;;;;;;;;;;;;;;;
2022/12/09 00:42:03;;;;;;;25.20;11.80;;;-1.30;99.90;;;;;;6223555;23;20040;-96
2022/12/09 00:45:24;;;;;;;26.40;12.90;;;-1.40;99.90;;;;;;6213031;23;20031;-96
2022/12/09 01:01:51;;;;;;;18.45;10.15;;;-0.50;99.90;;;;;;6186321;23;20028;-96
2022/12/09 01:04:27;;;;;;;17.85;10.00;;;-1.50;99.90;;;;;;6137088;23;20016;-96
2022/12/09 01:07:02;;;;;;;18.67;9.18;;;-1.50;99.90;;;;;;6186467;23;20017;-96
2022/12/09 01:09:34;;;;;;;17.90;9.20;;;-1.50;99.90;;;;;;6131861;23;20313;-96
2022/12/09 01:12:21;;;;;;;15.02;8.40;;;-2.30;99.90;;;;;;6136757;23;20028;-96
2022/12/09 01:14:49;;;;;;;18.02;9.13;;;-3.00;99.90;;;;;;6161559;23;20129;-96
2022/12/09 01:17:42;;;;;;;17.35;8.75;;;-1.50;99.90;;;;;;6137832;23;20065;-96
2022/12/09 01:20:27;;;;;;;16.75;8.20;;;-1.40;99.90;;;;;;6138819;23;20024;-96
2022/12/09 01:23:36;;;;;;;20.35;9.90;;;-1.50;99.90;;;;;;6138849;23;20024;-95
2022/12/09 01:30:05;;;;;;;15.43;8.60;;;-1.40;99.90;;;;;;6187288;23;20364;-96
2022/12/09 01:32:40;;;;;;;16.17;7.97;;;;;;;;;;6131676;23;20060;-96
2022/12/09 01:35:43;;;;;;;16.77;8.70;;;-1.60;99.90;;;;;;6133484;23;20017;-96
2022/12/09 01:38:12;;;;;;;16.73;9.05;;;-1.60;99.90;;;;;;6111910;23;20382;-96
2022/12/09 01:40:45;;;;;;;15.00;8.77;;;-1.50;99.90;;;;;;6132683;23;20059;-96
2022/12/09 01:43:23;;;;;;;17.70;9.15;;;-1.60;99.90;;;;;;6133490;23;20013;-95
2022/12/09 01:45:51;;;;;;;19.13;8.95;;;-1.50;99.90;;;;;;6143149;23;20021;-96
2022/12/09 01:48:42;;;;;;;16.42;8.38;;;-1.60;99.90;;;;;;6152059;23;20017;-96
2022/12/09 01:51:27;;;;;;;16.33;8.63;;;-1.30;99.90;;;;;;6148538;23;20523;-96
2022/12/09 01:54:14;;;;;;;20.90;8.43;;;-2.60;99.90;;;;;;6137713;23;20052;-96
2022/12/09 01:56:43;;;;;;;20.73;8.63;;;-1.40;99.90;;;;;;6136688;23;20021;-96
2022/12/09 01:59:13;;;;;;;19.05;9.23;;;-1.50;99.90;;;;;;6135576;23;20025;-96
2022/12/09 02:01:56;;;;;;;17.17;9.10;;;-1.40;99.90;;;;;;6136583;23;20052;-96
2022/12/09 02:04:26;;;;;;;18.73;9.05;;;-1.50;99.90;;;;;;6138664;23;20017;-96
2022/12/09 02:06:55;;;;;;;17.63;8.35;;;-1.50;99.90;;;;;;6132788;23;20013;-96
2022/12/09 02:09:22;;;;;;;18.35;9.07;;;-1.40;99.90;;;;;;6109694;23;20027;-96
2022/12/09 02:23:06;;;;;;;17.27;7.77;;;0.10;99.90;;;;;;6191089;23;20017;-96
2022/12/09 02:26:10;;;;;;;15.73;7.65;;;-1.40;99.90;;;;;;6141026;23;20459;-96
2022/12/09 02:29:10;;;;;;;14.07;7.90;;;-1.40;99.90;;;;;;6156163;23;20067;-94
2022/12/09 02:35:28;;;;;;;15.23;7.20;;;-1.30;99.90;;;;;;6156498;23;19916;-94
2022/12/09 02:45:57;;;;;;;18.55;8.32;;;-1.40;99.90;;;;;;6167800;23;20021;-96
2022/12/09 02:48:52;;;;;;;15.18;7.88;;;-1.50;99.90;;;;;;6109635;23;20049;-96
2022/12/09 02:51:33;;;;;;;;;;;;;;;;;;;;;
2022/12/09 02:54:37;;;;;;;13.50;7.72;;;-1.50;99.90;;;;;;6132750;23;20088;-96
2022/12/09 02:57:25;;;;;;;14.63;7.40;;;-5.50;99.90;;;;;;6109304;23;20017;-96
2022/12/09 03:00:04;;;;;;;17.98;8.25;;;-1.40;99.90;;;;;;6111517;23;20014;-96
2022/12/09 03:02:43;;;;;;;15.82;8.30;;;-1.50;99.90;;;;;;6111327;23;20021;-96
2022/12/09 03:09:36;;;;;;;14.55;7.75;;;-1.50;99.90;;;;;;6208907;22;20593;-96
2022/12/09 03:12:10;;;;;;;19.75;7.43;;;0.00;99.90;;;;;;6166095;23;20021;-96
2022/12/09 03:15:14;;;;;;;20.88;8.13;;;-1.60;99.90;;;;;;6167795;23;20021;-94
2022/12/09 03:18:05;;;;;;;16.30;7.82;;;-1.50;99.90;;;;;;6167671;23;20316;-96
2022/12/09 03:20:44;;;;;;;18.30;7.07;;;-1.60;99.90;;;;;;6174238;23;20017;-94
2022/12/09 03:23:16;;;;;;;16.25;7.35;;;-1.50;99.90;;;;;;6175977;23;20055;-96
2022/12/09 03:25:53;;;;;;;16.98;7.45;;;-1.50;99.90;;;;;;6143095;23;20017;-95
2022/12/09 03:28:29;;;;;;;15.05;7.10;;;-1.40;99.90;;;;;;6164136;23;20023;-95
2022/12/09 03:34:25;;;;;;;16.88;8.00;;;-1.60;99.90;;;;;;6191551;23;20028;-96
2022/12/09 03:37:17;;;;;;;16.70;7.88;;;-1.50;99.90;;;;;;6166734;23;20016;-96
2022/12/09 03:46:49;;;;;;;18.55;7.93;;;-1.40;99.90;;;;;;6192867;23;20404;-96
2022/12/09 03:49:18;;;;;;;14.07;6.70;;;-1.50;99.90;;;;;;6143135;23;20027;-96
2022/12/09 03:51:56;;;;;;;16.23;7.50;;;-1.50;99.90;;;;;;6139408;23;20086;-96
2022/12/09 03:54:25;;;;;;;18.45;7.68;;;-1.40;99.90;;;;;;6162948;23;20095;-96
2022/12/09 03:56:55;;;;;;;18.50;7.35;;;-1.50;99.90;;;;;;6161110;23;20055;-96
2022/12/09 03:59:30;;;;;;;18.48;8.23;;;-1.30;99.90;;;;;;6166512;23;20013;-96
2022/12/09 04:02:35;;;;;;;17.00;7.95;;;-1.40;99.90;;;;;;6166963;23;20025;-95
2022/12/09 04:08:48;;;;;;;15.77;7.28;;;-1.30;99.90;;;;;;6217208;23;20031;-96
2022/12/09 04:11:42;;;;;;;22.98;8.20;;;-1.40;99.90;;;;;;6142788;23;20016;-96
2022/12/09 04:14:09;;;;;;;17.52;8.10;;;-1.50;99.90;;;;;;6167233;23;20017;-96
2022/12/09 04:17:12;;;;;;;18.95;8.27;;;-1.40;99.90;;;;;;6142316;23;20115;-96
2022/12/09 04:19:39;;;;;;;15.27;7.72;;;;;;;;;;6166244;23;20017;-96
2022/12/09 04:25:52;;;;;;;16.70;8.45;;;-1.50;99.90;;;;;;6191513;23;20443;-96
2022/12/09 04:28:41;;;;;;;19.35;8.18;;;-1.40;99.90;;;;;;6166539;23;20054;-96
2022/12/09 04:38:32;;;;;;;15.68;7.47;;;-1.30;99.90;;;;;;6219075;23;20752;-96
2022/12/09 04:41:02;;;;;;;18.35;8.50;;;-1.50;99.90;;;;;;6144077;23;20020;-96
2022/12/09 04:43:29;;;;;;;15.93;7.75;;;-1.50;99.90;;;;;;6177371;23;20016;-95
2022/12/09 04:46:00;;;;;;;17.15;8.23;;;-2.10;99.90;;;;;;6182698;23;20016;-96
2022/12/09 04:48:49;;;;;;;16.63;8.13;;;-1.60;99.90;;;;;;6185806;23;20075;-96
2022/12/09 04:51:53;;;;;;;16.15;8.50;;;-1.50;99.90;;;;;;6186551;23;20016;-94
2022/12/09 04:54:28;;;;;;;16.13;7.57;;;-2.60;99.90;;;;;;6184718;23;20017;-94
2022/12/09 05:07:34;;;;;;;18.35;8.57;;;0.00;99.90;;;;;;6190717;23;20103;-96
2022/12/09 05:14:02;;;;;;;16.83;7.15;;;-1.80;99.90;;;;;;6217678;23;20474;-96
2022/12/09 05:16:50;;;;;;;17.08;8.05;;;-1.70;99.90;;;;;;6166938;23;20020;-96
2022/12/09 05:19:37;;;;;;;16.83;7.38;;;-1.70;99.90;;;;;;6157996;23;20106;-96
2022/12/09 05:22:24;;;;;;;19.05;8.23;;;-3.30;99.90;;;;;;6159202;23;20023;-94
2022/12/09 05:28:40;;;;;;;17.25;8.00;;;-1.50;99.90;;;;;;6191378;23;20122;-96
2022/12/09 05:38:11;;;;;;;16.13;8.38;;;-1.60;99.90;;;;;;6217138;23;20062;-96
2022/12/09 05:40:41;;;;;;;18.38;8.25;;;;;;;;;;6139277;23;20028;-96
2022/12/09 06:20:27;;;;;;;18.08;7.50;;;-1.70;99.90;;;;;;6188533;23;20020;-96
2022/12/09 06:23:34;;;;;;;18.25;8.23;;;-1.50;99.90;;;;;;6190729;23;20056;-95
2022/12/09 06:29:56;;;;;;;15.82;7.18;;;-1.30;99.90;;;;;;6219803;23;20018;-96
2022/12/09 06:32:56;;;;;;;17.92;7.40;;;-1.90;99.90;;;;;;6148930;23;20029;-95
2022/12/09 06:35:25;;;;;;;21.15;8.50;;;-2.00;99.90;;;;;;6135214;23;20016;-95
2022/12/09 06:38:10;;;;;;;16.92;7.97;;;-2.00;99.90;;;;;;6164606;23;20308;-96
2022/12/09 06:40:43;;;;;;;16.15;8.38;;;-1.70;99.90;;;;;;6191184;23;20067;-96
2022/12/09 06:43:28;;;;;;;18.48;8.65;;;-2.00;99.90;;;;;;6193925;23;20088;-96
2022/12/09 06:49:56;;;;;;;17.92;7.60;;;-2.10;99.90;;;;;;6218813;23;20058;-96
2022/12/09 06:53:01;;;;;;;15.75;8.20;;;-1.80;99.90;;;;;;6193450;23;20559;-96
2022/12/09 06:59:09;;;;;;;16.33;8.13;;;-1.90;99.90;;;;;;6219353;23;20016;-96
2022/12/09 07:01:45;;;;;;;16.90;8.75;;;-1.80;99.90;;;;;;6192645;23;20017;-96
2022/12/09 07:07:56;;;;;;;15.77;8.25;;;-2.10;99.90;;;;;;6217241;23;20063;-95
2022/12/09 07:10:44;;;;;;;17.20;8.32;;;-2.10;99.90;;;;;;6168927;23;20030;-95
2022/12/09 07:13:12;;;;;;;17.83;8.95;;;-1.90;99.90;;;;;;6193364;23;20021;-95
2022/12/09 07:15:40;;;;;;;16.95;8.07;;;-3.20;99.90;;;;;;6207021;23;20060;-95
2022/12/09 07:18:10;;;;;;;21.23;8.77;;;-2.10;99.90;;;;;;6187028;23;20032;-95
2022/12/09 07:21:14;;;;;;;19.50;8.85;;;-2.10;99.90;;;;;;6203211;23;20017;-95
2022/12/09 07:23:40;;;;;;;20.58;9.82;;;-1.90;99.90;;;;;;6196753;23;20454;-96
2022/12/09 07:26:09;;;;;;;22.55;8.68;;;-2.00;99.90;;;;;;6191429;23;20016;-96
2022/12/09 07:32:21;;;;;;;22.63;10.13;;;-1.90;99.90;;;;;;6220909;23;20091;-94
2022/12/09 07:35:09;;;;;;;19.63;9.95;;;-2.00;99.90;;;;;;6169006;23;20028;-94
2022/12/09 07:37:46;;;;;;;22.17;10.10;;;-1.90;99.90;;;;;;6193800;23;20012;-93
2022/12/09 07:40:12;;;;;;;23.55;10.75;;;-1.80;99.90;;;;;;6170992;23;20029;-93
2022/12/09 07:42:40;;;;;;;23.08;10.27;;;-2.00;99.90;;;;;;6168972;23;20028;-93
2022/12/09 07:45:07;;;;;;;27.58;11.63;;;-1.90;99.90;;;;;;6167853;23;20082;-94
2022/12/09 07:48:12;;;;;;;24.33;10.55;;;-1.80;99.90;;;;;;6167272;23;20023;-96
2022/12/09 07:54:17;;;;;;;24.80;10.75;;;-1.70;99.90;;;;;;6216964;23;20752;-95
2022/12/09 07:57:22;;;;;;;28.60;10.98;;;-1.90;99.90;;;;;;6191917;23;20032;-94
2022/12/09 08:03:13;;;;;;;23.60;11.68;;;-1.80;99.90;;;;;;6214190;23;20032;-95
2022/12/09 08:06:02;;;;;;;25.55;12.05;;;-1.60;99.90;;;;;;6161406;23;20023;-95
2022/12/09 08:08:28;;;;;;;22.98;10.25;;;-1.60;99.90;;;;;;6186486;23;20019;-95
2022/12/09 08:14:35;;;;;;;24.40;11.57;;;-1.50;99.90;;;;;;6217524;23;20015;-94
2022/12/09 08:17:01;;;;;;;28.00;12.60;;;;;;;;;;6167336;23;20023;-95
2022/12/09 08:19:47;;;;;;;25.42;11.88;;;-1.50;99.90;;;;;;6191271;23;20028;-95
2022/12/09 08:22:15;;;;;;;28.25;12.30;;;-1.50;99.90;;;;;;6190801;23;20024;-95
2022/12/09 08:24:47;;;;;;;29.40;11.32;;;-1.30;99.90;;;;;;6166623;23;20092;-94
2022/12/09 08:27:14;;;;;;;34.38;14.18;;;-1.40;99.90;;;;;;6167247;23;20020;-96
2022/12/09 08:29:43;;;;;;;27.90;12.90;;;-1.30;99.90;;;;;;6189790;23;20068;-95
2022/12/09 08:32:12;;;;;;;27.27;12.18;;;-1.00;99.90;;;;;;6165155;23;20107;-95
2022/12/09 08:34:38;;;;;;;28.98;12.55;;;-1.00;99.90;;;;;;6164343;23;20518;-95
2022/12/09 08:37:09;;;;;;;28.80;12.55;;;-1.10;99.90;;;;;;6165209;23;20064;-95
2022/12/09 08:39:39;;;;;;;28.83;13.40;;;-0.80;99.90;;;;;;6165563;23;20012;-95
2022/12/09 08:42:06;;;;;;;26.23;13.45;;;-0.90;99.90;;;;;;6164276;23;20116;-96
2022/12/09 08:51:46;;;;;;;28.27;14.10;;;-0.60;99.90;;;;;;6210609;23;20525;-94
2022/12/09 08:54:23;;;;;;;31.35;14.82;;;0.00;99.90;;;;;;6214686;23;20094;-95
2022/12/09 08:57:08;;;;;;;31.83;13.65;;;-0.20;99.90;;;;;;6166685;23;20336;-94
2022/12/09 09:00:19;;;;;;;;;;;;;;;;;;;;;
2022/12/09 09:03:27;;;;;;;;;;;;;;;;;;;;;
2022/12/09 09:10:18;;;;;;;;;;;;;;;;;;;;;
2022/12/09 09:17:26;;;;;;;;;;;;;;;;;;;;;
2022/12/09 09:20:56;;;;;;;;;;;;;;;;;;;;;
2022/12/09 09:34:55;;;;;;;;;;;;;;;;;;;;;
2022/12/09 09:38:13;;;;;;;;;;;;;;;;;;;;;
2022/12/09 09:45:30;;;;;;;;;;;;;;;;;;;;;
2022/12/09 09:48:45;;;;;;;;;;;;;;;;;;;;;
2022/12/09 09:52:02;;;;;;;;;;;;;;;;;;;;;
2022/12/09 13:16:52;;;;;;;26.88;14.25;;;0.60;99.90;;;;;;6153304;23;20021;-93
2022/12/09 16:48:06;;;;;;;181.23;26.83;;;-0.30;99.90;;;;;;6198182;22;20063;-93
2022/12/09 16:54:14;;;;;;;104.22;16.13;;;0.70;99.90;;;;;;6216102;23;20127;-94
2022/12/09 17:00:55;;;;;;;145.50;21.27;;;-0.60;99.90;;;;;;6219212;23;20097;-94
2022/12/09 17:15:58;;;;;;;;;;;;;;;;;;;;;
2022/12/09 17:19:34;;;;;;;;;;;;;;;;;;;;;
2022/12/09 17:23:13;;;;;;;;;;;;;;;;;;;;;
2022/12/09 17:26:20;;;;;;;36.85;14.15;;;-0.70;99.90;;;;;;5902140;24;20108;-93
2022/12/09 17:29:44;;;;;;;;;;;;;;;;;;;;;
2022/12/09 22:02:44;;;;;;;;;;;;;;;;;;;;;
2022/12/09 22:05:13;;;;;;;31.63;13.90;;;-2.50;99.90;;;;;;6239676;22;2071066;-95
2022/12/09 22:08:08;;;;;;;37.63;16.17;;;-1.70;99.90;;;;;;6282550;22;20034;-93
2022/12/09 22:11:20;;;;;;;36.08;16.00;;;-1.60;99.90;;;;;;6293695;22;20030;-94
2022/12/09 22:14:07;;;;;;;31.70;14.38;;;-1.60;99.90;;;;;;6300459;22;20019;-91
2022/12/09 22:23:32;;;;;;;29.25;14.30;;;-1.60;99.90;;;;;;6334133;22;20007;-95
2022/12/09 22:26:18;;;;;;;34.97;15.23;;;-1.50;99.90;;;;;;6303630;22;20049;-94
2022/12/09 22:28:44;;;;;;;28.05;13.10;;;-1.50;99.90;;;;;;6292322;22;20045;-94
2022/12/09 22:31:22;;;;;;;33.67;14.88;;;-1.40;99.90;;;;;;6287125;22;20410;-94
2022/12/09 22:34:32;;;;;;;30.57;13.40;;;-1.70;99.90;;;;;;6287690;22;20022;-94
2022/12/09 22:37:06;;;;;;;32.13;14.93;;;-1.40;99.90;;;;;;6283236;22;20506;-96
2022/12/09 22:40:17;;;;;;;30.40;14.40;;;-1.70;99.90;;;;;;6257715;22;20015;-95
2022/12/09 22:42:43;;;;;;;28.75;14.15;;;;;;;;;;6280452;22;20100;-95
2022/12/09 22:48:58;;;;;;;30.00;13.98;;;-1.30;99.90;;;;;;6313636;22;20555;-96
2022/12/09 22:55:24;;;;;;;29.50;14.10;;;-1.50;99.90;;;;;;6308880;22;20019;-95
2022/12/09 23:01:52;;;;;;;33.00;13.83;;;-1.20;99.90;;;;;;6310370;22;20010;-94
2022/12/09 23:04:22;;;;;;;35.70;15.35;;;-2.00;99.90;;;;;;6304516;22;20019;-95
2022/12/09 23:06:49;;;;;;;33.03;14.98;;;-1.60;99.90;;;;;;6277958;22;20023;-94
2022/12/09 23:09:20;;;;;;;35.80;15.60;;;-0.40;99.90;;;;;;6276969;22;20022;-95
2022/12/09 23:11:48;;;;;;;36.08;14.32;;;-1.70;99.90;;;;;;6282380;22;20592;-95
2022/12/09 23:21:57;;;;;;;35.90;15.33;;;-1.90;99.90;;;;;;6309968;22;20015;-94
2022/12/09 23:24:26;;;;;;;30.33;13.77;;;-0.10;99.90;;;;;;6282760;22;20434;-94
2022/12/09 23:34:37;;;;;;;30.92;14.10;;;1.50;99.90;;;;;;6309403;22;20023;-96
2022/12/09 23:37:05;;;;;;;36.33;14.57;;;-1.60;99.90;;;;;;6308557;22;20068;-91
2022/12/09 23:43:16;;;;;;;31.60;14.63;;;-1.80;99.90;;;;;;6311559;22;20437;-96
2022/12/09 23:46:01;;;;;;;33.87;13.73;;;;;;;;;;6283745;22;20019;-96
2022/12/09 23:48:29;;;;;;;31.55;14.80;;;;;;;;;;6283425;22;20496;-96
2022/12/09 23:51:20;;;;;;;35.85;15.55;;;-1.90;99.90;;;;;;6282876;22;20736;-94
2022/12/09 23:54:08;;;;;;;32.65;15.35;;;-1.60;99.90;;;;;;6283755;22;20015;-95
